createdAt,value
2022-09-25T00:01:08.745Z,101444.00
2022-09-25T00:06:59.968Z,101492.78
2022-09-25T00:18:42.337Z,101449.81
2022-09-25T00:23:52.980Z,101519.59
2022-09-25T00:29:05.281Z,101487.97
2022-09-25T00:34:13.103Z,101492.25
2022-09-25T00:39:33.220Z,101469.47
2022-09-25T00:45:05.422Z,101453.16
2022-09-25T00:50:13.139Z,101475.16
2022-09-25T00:55:28.849Z,101480.47
2022-09-25T01:00:30.304Z,101484.16
2022-09-25T01:05:45.989Z,101479.44
2022-09-25T01:17:52.885Z,101410.25
2022-09-25T01:23:06.903Z,101472.13
2022-09-25T01:28:27.864Z,101434.81
2022-09-25T01:33:42.107Z,101414.34
2022-09-25T01:38:47.393Z,101444.97
2022-09-25T01:43:48.315Z,101443.34
2022-09-25T01:48:51.411Z,101413.41
2022-09-25T01:53:54.243Z,101449.41
2022-09-25T01:58:57.149Z,101408.66
2022-09-25T02:04:10.775Z,101389.13
2022-09-25T02:09:18.619Z,101409.31
2022-09-25T02:14:31.970Z,101406.13
2022-09-25T02:19:52.666Z,101459.06
2022-09-25T02:24:59.115Z,101401.63
2022-09-25T02:30:14.357Z,101487.16
2022-09-25T02:35:28.065Z,101483.06
2022-09-25T02:40:35.991Z,101433.06
2022-09-25T02:45:45.472Z,101399.28
2022-09-25T02:51:02.760Z,101422.56
2022-09-25T02:56:05.623Z,101475.06
2022-09-25T03:01:09.460Z,101457.44
2022-09-25T03:06:41.409Z,101425.50
2022-09-25T03:11:54.469Z,101465.19
2022-09-25T03:17:10.885Z,101497.97
2022-09-25T03:22:20.446Z,101481.25
2022-09-25T03:27:32.986Z,101445.28
2022-09-25T03:32:31.646Z,101459.19
2022-09-25T03:37:33.123Z,101431.91
2022-09-25T03:42:46.471Z,101468.78
2022-09-25T03:47:43.815Z,101489.38
2022-09-25T03:52:40.929Z,101421.81
2022-09-25T03:57:38.775Z,101457.84
2022-09-25T04:02:39.689Z,101452.81
2022-09-25T04:07:38.546Z,101437.78
2022-09-25T04:12:38.265Z,101468.31
2022-09-25T04:17:41.423Z,101465.75
2022-09-25T04:22:48.061Z,101459.31
2022-09-25T04:27:52.298Z,101481.88
2022-09-25T04:33:13.534Z,101534.03
2022-09-25T04:38:19.486Z,101531.88
2022-09-25T04:43:18.804Z,101430.84
2022-09-25T04:48:15.973Z,101429.53
2022-09-25T04:53:14.798Z,101401.81
2022-09-25T04:58:16.455Z,101422.97
2022-09-25T05:03:18.904Z,101446.59
2022-09-25T05:08:23.601Z,101452.78
2022-09-25T05:13:32.634Z,101458.53
2022-09-25T05:18:35.952Z,101425.66
2022-09-25T05:23:41.510Z,101437.13
2022-09-25T05:28:59.654Z,101511.69
2022-09-25T05:34:32.193Z,101463.28
2022-09-25T05:39:55.947Z,101508.44
2022-09-25T05:45:07.690Z,101433.94
2022-09-25T05:50:47.334Z,101508.47
2022-09-25T05:56:45.492Z,101475.59
2022-09-25T06:02:23.699Z,101462.63
2022-09-25T06:07:39.229Z,101484.88
2022-09-25T06:13:03.950Z,101476.31
2022-09-25T06:18:25.819Z,101498.94
2022-09-25T06:24:00.471Z,101482.06
2022-09-25T06:29:43.613Z,101491.75
2022-09-25T06:35:05.849Z,101498.03
2022-09-25T06:40:42.093Z,101391.19
2022-09-25T06:46:22.410Z,101481.78
2022-09-25T06:51:46.307Z,101432.50
2022-09-25T07:09:47.460Z,101472.31
2022-09-25T07:15:38.718Z,101465.75
2022-09-25T07:46:13.897Z,101498.34
2022-09-25T07:51:35.309Z,101435.47
2022-09-25T07:57:28.273Z,101487.25
2022-09-25T08:09:22.952Z,101471.94
2022-09-25T08:14:40.840Z,101399.34
2022-09-25T08:25:30.680Z,101385.72
2022-09-25T08:36:11.150Z,101370.72
2022-09-25T08:41:39.214Z,101425.56
2022-09-25T08:47:52.234Z,101441.84
2022-09-25T08:52:46.628Z,101366.63
2022-09-25T09:04:49.154Z,101343.69
2022-09-25T09:10:50.528Z,101380.66
2022-09-25T09:23:15.901Z,101409.91
2022-09-25T09:49:18.737Z,101340.03
2022-09-25T10:07:12.292Z,101286.16
2022-09-25T10:18:38.373Z,101254.38
2022-09-25T10:24:25.414Z,101337.44
2022-09-25T10:36:35.532Z,101247.69
2022-09-25T10:43:00.000Z,101284.94
2022-09-25T10:48:29.628Z,101221.06
2022-09-25T11:00:47.173Z,101237.88
2022-09-25T11:13:09.477Z,101182.28
2022-09-25T11:25:36.068Z,101234.81
2022-09-25T11:31:34.762Z,101191.38
2022-09-25T11:43:48.463Z,101248.16
2022-09-25T11:55:34.717Z,101229.63
2022-09-25T12:19:38.701Z,101213.44
2022-09-25T12:25:09.779Z,101153.19
2022-09-25T12:49:15.714Z,101174.84
2022-09-25T13:00:37.239Z,101164.53
2022-09-25T13:05:54.788Z,101165.50
2022-09-25T13:11:29.549Z,101108.84
2022-09-25T13:17:23.440Z,101140.44
2022-09-25T13:23:30.706Z,101156.09
2022-09-25T13:29:22.921Z,101087.31
2022-09-25T13:34:51.832Z,101054.19
2022-09-25T13:40:23.752Z,101138.31
2022-09-25T13:47:52.029Z,101083.50
2022-09-25T13:52:14.460Z,101085.16
2022-09-25T13:58:19.990Z,101126.91
2022-09-25T14:03:47.359Z,101076.06
2022-09-25T14:09:00.126Z,101056.19
2022-09-25T14:21:05.840Z,101111.56
2022-09-25T14:26:56.625Z,101003.47
2022-09-25T14:38:11.091Z,101042.81
2022-09-25T14:43:46.738Z,101080.22
2022-09-25T14:49:20.676Z,101021.97
2022-09-25T14:54:43.851Z,101084.78
2022-09-25T14:59:54.239Z,101006.69
2022-09-25T15:04:52.073Z,101084.44
2022-09-25T15:10:05.561Z,100987.28
2022-09-25T15:15:24.120Z,101012.47
2022-09-25T15:20:42.501Z,101078.94
2022-09-25T15:26:22.905Z,100995.63
2022-09-25T15:32:20.763Z,101074.53
2022-09-25T15:39:18.266Z,101030.47
2022-09-25T15:43:46.228Z,100961.44
2022-09-25T15:49:12.501Z,101047.47
2022-09-25T15:54:33.207Z,100966.94
2022-09-25T16:00:10.925Z,100982.84
2022-09-25T16:05:24.703Z,100995.53
2022-09-25T16:10:49.155Z,101020.88
2022-09-25T16:16:00.240Z,101015.66
2022-09-25T16:21:16.360Z,101021.72
2022-09-25T16:26:23.567Z,100959.94
2022-09-25T16:31:27.736Z,101060.56
2022-09-25T16:36:55.171Z,101060.56
2022-09-25T16:41:57.884Z,101040.41
2022-09-25T16:52:47.654Z,101026.72
2022-09-25T16:58:20.764Z,101052.16
2022-09-25T17:03:19.110Z,101018.06
2022-09-25T17:08:27.455Z,100955.75
2022-09-25T17:13:30.346Z,101026.72
2022-09-25T17:18:33.962Z,100978.25
2022-09-25T17:23:49.375Z,100948.22
2022-09-25T17:28:51.269Z,101054.34
2022-09-25T17:40:06.495Z,100967.66
2022-09-25T17:45:20.662Z,101054.44
2022-09-25T17:50:42.698Z,100982.09
2022-09-25T17:55:53.370Z,101025.88
2022-09-25T18:01:29.044Z,100978.59
2022-09-25T18:06:38.289Z,100953.47
2022-09-25T18:11:57.786Z,101017.66
2022-09-25T18:16:55.182Z,101045.75
2022-09-25T18:22:10.504Z,101073.72
2022-09-25T18:27:16.958Z,100973.88
2022-09-25T18:32:27.743Z,100989.84
2022-09-25T18:37:34.121Z,100964.06
2022-09-25T18:42:32.966Z,101031.34
2022-09-25T18:47:34.024Z,100982.97
2022-09-25T18:52:41.193Z,100960.13
2022-09-25T18:58:07.736Z,101054.16
2022-09-25T19:03:25.023Z,100971.34
2022-09-25T19:08:53.176Z,101056.50
2022-09-25T19:14:18.563Z,100984.00
2022-09-25T19:25:10.731Z,100999.31
2022-09-25T19:36:07.754Z,100991.53
2022-09-25T19:41:15.472Z,101033.75
2022-09-25T19:46:28.720Z,101035.31
2022-09-25T19:51:30.574Z,100976.84
2022-09-25T19:56:34.054Z,101068.28
2022-09-25T20:01:39.669Z,100991.06
2022-09-25T20:06:53.497Z,101055.91
2022-09-25T20:12:09.189Z,101062.50
2022-09-25T20:17:16.513Z,100979.44
2022-09-25T20:22:50.710Z,101037.78
2022-09-25T20:28:49.561Z,101006.28
2022-09-25T20:33:34.925Z,101057.88
2022-09-25T20:44:24.809Z,100972.72
2022-09-25T20:49:34.654Z,101013.22
2022-09-25T20:54:41.265Z,100997.75
2022-09-25T20:59:53.660Z,101039.97
2022-09-25T21:05:11.533Z,100973.91
2022-09-25T21:10:12.793Z,101042.97
2022-09-25T21:15:13.339Z,100991.53
2022-09-25T21:20:16.437Z,101017.78
2022-09-25T21:25:28.679Z,100945.50
2022-09-25T21:30:32.413Z,100955.44
2022-09-25T21:35:32.829Z,101017.47
2022-09-25T21:40:30.153Z,100961.09
2022-09-25T21:45:30.947Z,100953.00
2022-09-25T21:50:28.309Z,100960.75
2022-09-25T21:55:32.645Z,100989.53
2022-09-25T22:00:36.121Z,100926.53
2022-09-25T22:05:35.582Z,100922.88
2022-09-25T22:10:38.175Z,100930.06
2022-09-25T22:15:44.760Z,101014.34
2022-09-25T22:20:48.198Z,100938.75
2022-09-25T22:25:46.604Z,100920.84
2022-09-25T22:30:43.721Z,100978.06
2022-09-25T22:35:43.019Z,100933.31
2022-09-25T22:40:40.869Z,100916.25
2022-09-25T22:45:48.410Z,100979.16
2022-09-25T22:50:54.854Z,100973.22
2022-09-25T22:55:53.773Z,100896.28
2022-09-25T23:00:55.039Z,100977.31
2022-09-25T23:05:59.702Z,100971.84
2022-09-25T23:11:07.532Z,100910.38
2022-09-25T23:16:16.217Z,100967.34
2022-09-25T23:21:15.596Z,100899.72
2022-09-25T23:26:17.270Z,100972.94
2022-09-25T23:31:17.630Z,100927.72
2022-09-25T23:36:22.602Z,100887.66
2022-09-25T23:41:24.992Z,100919.63
2022-09-25T23:46:26.954Z,100854.47
2022-09-25T23:51:25.650Z,100913.38
2022-09-25T23:56:32.211Z,100935.16
